Forum - i mitici sud

tutti gli utenti del gruppo possono partecipare le discussione con riferimento a sesso o non conforme a chatta.it verranno imossi

Amministratore
F.ranco52 01/03/2020 ore 09:15 Quota

(nessuno) Nowcasting 1° Marzo 2020

Buongiorno a tutti


Notizie Meteo dell'Italia da il Meteo .It


http://ilMeteo.It


la Situazione Italiana vista dal Sat









il Radar Europeo









Brindisi

METAR LIBR 010650Z 15009KT 9999 FEW015 SCT025 11/10 Q1016=

METAR di Brindisi del 1° Marzo alle 6,50z

Vento da 150° S SE 9 nodi (16,668 km) Visibilitą 10000 m
Copertura 1-2 ottavi da 1500 piedi (457,2 m)
Copertura 3-4 ottavi da 2500 piedi (762 m)
Temp 11°C Dew 10°C Ur 93% hPa 1016

Brindisi

TAF LIBR 010500Z 0106/0206 16012KT CAVOK=

le TAF di Brindisi delle 5z Previsioni dalle 6z alle 6z del 2

Vento da 160° S SE 12 nodi (22,224 km) Visibilitą 10000 m
Base delle Nubi e Visibilitą OK


Gioia del Colle

METAR LIBV 010655Z 16012KT 6000 2500W SCT002 09/09 Q1014 RMK SCT SCT200 VIS MIN 2500W WIND THR32 17010KT WIND THR14 17010KT YLO=

METAR di Gioia del Colle del 1° Marzo alle 6,55z

Vento da 160° S SE 12 nodi (22,224 km) Visibilitą 6000 m
Copertura 3-4 ottavi da 200 piedi (60,96 m)
Temp 9°C Dew 9°C Ur 100% hPa 1014
Aumento della Nuvolositą a 3-4 ottavi
Copertura 3-4 ottavi da 20000 piedi (6096 m)
Visibiitą Minima 2500 m

Gioia del Colle

TAF LIBV 010500Z 0106/0115 17009KT 9999 SCT020 BECMG 0106/0108 0100 FG OVC005 BECMG 0108/0110 3000 BR SCT020 BECMG 0110/0111 18015G25KT SCT020=

le TAF di Gioia del Colle delle 5z Previsioni dalle 6z alle 15z

Vento da 170° S SE 9 nodi (16,668 km) Visibilitą 10000 m
Copertura 3-4 ottavi da 2000 piedi (609,6 m)
le Condizioni Diverranno dalle 6z alle 8z
Visibilitą 100 m , Nebbia
Copertura 8 ottavi da 500 piedi (152,4 m)
le Condizioni Diverranno fra le 8z e le 10z
Visibilitą 3000 m , Foschia
Copertura 3-4 ottavi da 2000 piedi (609,6 m)
le Condizioni Diverranno fra le 10z e le 11z 11
Vento da 180° S 15 nodi (27,78 km)
Raffiche da 25 nodi (46,3 km)
Copertura 3-4 ottavi da 2000 piedi (609,6 m)
2660279
Buongiorno a tutti Notizie Meteo dell'Italia da il Meteo .It http://ilMeteo.It la Situazione Italiana vista dal Sat « immagine »...
Discussione
01/03/2020 09:15:22
none
  • mi piace
    iLikeIt
    PublicVote

Vuoi partecipare anche tu a questa discussione?

Rispondi per lasciare il tuo messaggio in questa discussione